logo dgac
Martes 21 de Septiembre del 2021
Buscar por aerodromo o helipuerto
Ingrese nombre de aeródromo, localidad o designador OACI:
TAF: TAF SCTB 211100Z 2112/2124 VRB02KT CAVOK TX20/2118Z TN06/2112Z BECMG 2116/2118 23007KT
TAF del 21/09/2021 a las 11:00 UTC
Para mayor información visite www.meteochile.cl
Período de validez: desde el 21 a las 12:00 UTC hasta el 21 a las 24:00 UTC
Viento: dirección variable, velocidad 2 nudos
Visibilidad: 10 km o más,
    sin nubes bajo los 5.000 pies o bajo del MSA (Mínimo de Seguridad del Aeródromo),
    sin cumulonimbus, y sin fenómenos de tiempo significativo en el aeródromo o alrededores
Temperatura máxima: 20ºC el 21 a las 18:00 UTC
Temperatura mínima: 6ºC el 21 a las 12:00 UTC
Se espera un cambio entre las 16:00 UTC del 21 y las 18:00 UTC del 21, :
Viento: dirección 230 grados, velocidad 7 nudos